Time;durP1;ratioP1;P1;durP2;ratioP2;P2;SDS_P1;SDS_P2;PMS_P1;PMS_P2;Temp;Humidity;BMP_temperature;BMP_pressure;BME280_temperature;BME280_humidity;BME280_pressure;Samples;Min_cycle;Max_cycle;Signal;HPM_P1;HPM_P2
2024/02/22 00:00:05;;;;;;;3.20;1.90;;;12.60;98.00;;;;;;4992706;28;20936;-68
2024/02/22 00:02:33;;;;;;;3.27;2.10;;;12.80;98.00;;;;;;4992964;28;21142;-67
2024/02/22 00:05:01;;;;;;;3.10;2.13;;;12.80;98.00;;;;;;4991769;28;20456;-68
2024/02/22 00:07:28;;;;;;;5.20;2.30;;;12.90;98.00;;;;;;4992927;28;20514;-67
2024/02/22 00:09:57;;;;;;;3.00;1.90;;;12.80;98.00;;;;;;4992809;28;20848;-68
2024/02/22 00:12:24;;;;;;;2.80;2.13;;;12.90;98.00;;;;;;4992849;28;20462;-67
2024/02/22 00:14:52;;;;;;;3.80;2.00;;;12.90;98.00;;;;;;4992575;28;20820;-68
2024/02/22 00:17:19;;;;;;;3.73;2.00;;;12.80;98.00;;;;;;4992484;28;20461;-67
2024/02/22 00:19:46;;;;;;;4.10;2.50;;;12.90;98.00;;;;;;4991497;28;20967;-68
2024/02/22 00:22:13;;;;;;;2.73;2.10;;;12.90;98.00;;;;;;4991456;28;20525;-68
2024/02/22 00:24:41;;;;;;;2.77;2.10;;;12.90;98.00;;;;;;4992425;28;20469;-68
2024/02/22 00:27:09;;;;;;;3.37;2.00;;;12.80;98.00;;;;;;4992542;28;20820;-68
2024/02/22 00:29:36;;;;;;;2.90;2.20;;;12.90;98.00;;;;;;4992335;28;20478;-67
2024/02/22 00:32:33;;;;;;;3.53;2.37;;;12.90;98.00;;;;;;4992448;28;20872;-68
2024/02/22 00:35:01;;;;;;;3.60;2.20;;;13.00;98.00;;;;;;4992413;28;20517;-67
2024/02/22 00:37:28;;;;;;;3.40;2.27;;;13.10;98.00;;;;;;4992137;28;20960;-68
2024/02/22 00:39:55;;;;;;;3.17;2.20;;;13.10;98.00;;;;;;4992354;28;20467;-67
2024/02/22 00:42:22;;;;;;;3.30;2.20;;;13.20;98.00;;;;;;4992383;28;20472;-68
2024/02/22 00:44:49;;;;;;;2.97;2.10;;;13.10;98.00;;;;;;4992580;28;20514;-68
2024/02/22 00:47:16;;;;;;;3.50;2.50;;;13.10;98.00;;;;;;4992117;28;20477;-68
2024/02/22 00:49:43;;;;;;;2.90;2.30;;;13.00;98.00;;;;;;4992539;28;20535;-67
2024/02/22 00:52:12;;;;;;;3.50;2.13;;;13.00;98.00;;;;;;4991346;28;20445;-68
2024/02/22 00:54:39;;;;;;;2.77;2.13;;;13.00;98.00;;;;;;4992404;28;20450;-67
2024/02/22 00:57:06;;;;;;;3.83;2.53;;;13.00;98.00;;;;;;4991091;28;20467;-68
2024/02/22 00:59:36;;;;;;;3.90;2.30;;;13.00;98.00;;;;;;4992040;28;20458;-68
2024/02/22 01:02:03;;;;;;;4.00;2.30;;;13.00;98.00;;;;;;4992130;28;20470;-68
2024/02/22 01:04:30;;;;;;;3.37;2.40;;;13.00;98.00;;;;;;4992239;28;20454;-68
2024/02/22 01:06:59;;;;;;;3.30;2.40;;;13.00;98.00;;;;;;4990641;28;20471;-68
2024/02/22 01:09:28;;;;;;;4.67;2.33;;;12.90;98.00;;;;;;4991726;28;20455;-67
2024/02/22 01:11:55;;;;;;;8.70;2.10;;;12.90;98.00;;;;;;4992020;28;20498;-68
2024/02/22 01:14:22;;;;;;;2.83;2.30;;;12.80;98.00;;;;;;4991961;28;20457;-68
2024/02/22 01:16:49;;;;;;;2.30;1.83;;;12.80;98.00;;;;;;4992241;28;20807;-68
2024/02/22 01:19:17;;;;;;;2.63;1.97;;;12.80;98.00;;;;;;4991815;28;20458;-68
2024/02/22 01:21:44;;;;;;;4.50;2.30;;;12.80;98.00;;;;;;4991966;28;20602;-67
2024/02/22 01:24:11;;;;;;;3.20;2.20;;;12.80;98.00;;;;;;4991756;28;20465;-68
2024/02/22 01:26:40;;;;;;;5.87;2.63;;;12.80;98.00;;;;;;4991936;28;20464;-67
2024/02/22 01:29:07;;;;;;;3.60;2.40;;;12.70;98.00;;;;;;4991707;28;20566;-67
2024/02/22 01:31:42;;;;;;;4.67;2.20;;;12.70;98.00;;;;;;4990566;28;20486;-67
2024/02/22 01:34:09;;;;;;;4.00;2.30;;;12.60;98.00;;;;;;4991617;28;20544;-67
2024/02/22 01:36:36;;;;;;;8.43;2.40;;;12.60;98.00;;;;;;4991802;28;20463;-67
2024/02/22 01:39:04;;;;;;;2.63;2.00;;;12.60;98.00;;;;;;4991718;28;20462;-68
2024/02/22 01:41:34;;;;;;;3.10;2.10;;;12.60;98.00;;;;;;4991803;28;20467;-67
2024/02/22 01:44:03;;;;;;;3.10;2.07;;;12.60;98.00;;;;;;4990465;28;20454;-67
2024/02/22 01:46:30;;;;;;;3.70;2.30;;;12.60;98.00;;;;;;4991692;28;20526;-68
2024/02/22 01:48:57;;;;;;;6.07;2.80;;;12.50;98.00;;;;;;4991663;28;20459;-68
2024/02/22 01:51:25;;;;;;;5.13;2.20;;;12.50;98.00;;;;;;4994208;28;20516;-68
2024/02/22 01:53:53;;;;;;;4.10;2.50;;;12.50;98.00;;;;;;4995250;28;20795;-68
2024/02/22 01:56:22;;;;;;;3.63;2.33;;;12.50;98.00;;;;;;4995001;28;20462;-67
2024/02/22 01:58:51;;;;;;;4.53;2.40;;;;;;;;;;4994899;28;20458;-68
2024/02/22 02:01:22;;;;;;;4.30;2.50;;;12.40;98.00;;;;;;4994652;28;20476;-67
2024/02/22 02:03:50;;;;;;;3.93;2.40;;;12.40;98.00;;;;;;4995057;28;20458;-67
2024/02/22 02:06:17;;;;;;;4.07;2.37;;;12.40;98.00;;;;;;4994693;28;20496;-68
2024/02/22 02:08:44;;;;;;;2.80;2.23;;;12.30;98.00;;;;;;4994828;28;20505;-67
2024/02/22 02:11:14;;;;;;;3.30;2.13;;;12.30;98.00;;;;;;5009977;28;20477;-68
2024/02/22 02:13:41;;;;;;;3.43;2.30;;;12.30;98.00;;;;;;5014236;28;20457;-67
2024/02/22 02:16:09;;;;;;;2.87;2.03;;;12.30;98.00;;;;;;5014616;28;20458;-67
2024/02/22 02:18:39;;;;;;;5.43;2.50;;;12.20;98.00;;;;;;5014115;28;20465;-68
2024/02/22 02:21:11;;;;;;;3.63;2.50;;;12.20;98.00;;;;;;5013719;28;20464;-67
2024/02/22 02:23:52;;;;;;;3.43;2.40;;;12.20;98.00;;;;;;5014304;28;20480;-67
2024/02/22 02:26:21;;;;;;;3.17;2.27;;;12.20;98.00;;;;;;5014384;28;20459;-67
2024/02/22 02:28:50;;;;;;;5.13;2.87;;;12.10;98.00;;;;;;5014347;28;20535;-68
2024/02/22 02:31:17;;;;;;;3.47;2.30;;;12.10;98.00;;;;;;5012953;28;20481;-67
2024/02/22 02:33:44;;;;;;;4.27;2.30;;;12.00;98.00;;;;;;5014068;28;20457;-67
2024/02/22 02:36:11;;;;;;;3.57;2.30;;;11.90;98.00;;;;;;5014122;28;20468;-68
2024/02/22 02:38:38;;;;;;;4.70;2.63;;;11.80;98.00;;;;;;5012924;28;20472;-67
2024/02/22 02:41:06;;;;;;;2.90;2.17;;;11.70;98.00;;;;;;5012640;28;20457;-68
2024/02/22 02:43:34;;;;;;;3.23;2.20;;;11.70;98.00;;;;;;5013707;28;20945;-67
2024/02/22 02:46:01;;;;;;;3.40;2.40;;;11.60;98.00;;;;;;5014086;28;20965;-67
2024/02/22 02:48:29;;;;;;;3.27;2.30;;;11.60;98.00;;;;;;5013251;28;20508;-67
2024/02/22 02:50:56;;;;;;;3.00;2.23;;;11.60;98.00;;;;;;5013459;28;20483;-67
2024/02/22 02:53:23;;;;;;;3.80;2.20;;;11.60;98.00;;;;;;5013518;28;20545;-67
2024/02/22 02:55:50;;;;;;;4.80;2.50;;;11.60;98.00;;;;;;5013658;28;20459;-68
2024/02/22 02:58:17;;;;;;;2.87;1.97;;;11.60;98.00;;;;;;5013338;28;20978;-67
2024/02/22 03:00:45;;;;;;;3.17;2.07;;;11.60;98.00;;;;;;5012412;28;20494;-68
2024/02/22 03:03:12;;;;;;;3.10;2.20;;;11.60;98.00;;;;;;5013410;28;20844;-67
2024/02/22 03:05:40;;;;;;;2.90;2.10;;;11.50;98.00;;;;;;5013614;28;20459;-67
2024/02/22 03:08:09;;;;;;;4.00;2.30;;;11.50;98.00;;;;;;4995684;28;20458;-67
2024/02/22 03:10:36;;;;;;;4.00;2.03;;;11.60;98.00;;;;;;5013136;28;20453;-67
2024/02/22 03:13:08;;;;;;;3.30;2.10;;;11.60;98.00;;;;;;4995804;28;20873;-67
2024/02/22 03:15:36;;;;;;;3.20;2.17;;;11.60;98.00;;;;;;5013236;28;20461;-68
2024/02/22 03:18:07;;;;;;;2.47;1.93;;;11.60;98.00;;;;;;5013145;28;20453;-67
2024/02/22 03:20:35;;;;;;;3.00;1.83;;;11.60;98.00;;;;;;5013169;28;20514;-67
2024/02/22 03:23:03;;;;;;;2.87;2.00;;;11.50;98.00;;;;;;5012494;28;20456;-67
2024/02/22 03:25:30;;;;;;;3.60;2.00;;;11.50;98.00;;;;;;5013235;28;20561;-68
2024/02/22 03:27:58;;;;;;;2.80;1.90;;;11.40;98.00;;;;;;5012513;28;20449;-68
2024/02/22 03:30:27;;;;;;;4.00;2.20;;;11.40;98.00;;;;;;5013079;28;20467;-68
2024/02/22 03:32:54;;;;;;;7.03;2.47;;;11.40;98.00;;;;;;5013010;28;20488;-67
2024/02/22 03:35:23;;;;;;;3.00;2.00;;;11.30;98.00;;;;;;5011681;28;20463;-67
2024/02/22 03:37:50;;;;;;;3.57;2.07;;;11.30;98.00;;;;;;5012721;28;20525;-68
2024/02/22 03:40:18;;;;;;;3.67;2.17;;;11.20;98.00;;;;;;4979239;28;20459;-67
2024/02/22 03:42:45;;;;;;;2.50;1.97;;;11.10;98.00;;;;;;5012846;28;20455;-67
2024/02/22 03:45:12;;;;;;;2.80;1.93;;;11.10;98.00;;;;;;5012600;28;20494;-67
2024/02/22 03:47:40;;;;;;;3.07;1.90;;;11.00;98.00;;;;;;5011488;28;20452;-67
2024/02/22 03:50:08;;;;;;;3.67;2.20;;;11.00;98.00;;;;;;5011416;28;20792;-67
2024/02/22 03:52:36;;;;;;;3.37;2.20;;;11.10;98.00;;;;;;5012718;28;20596;-68
2024/02/22 03:55:04;;;;;;;3.87;2.10;;;11.10;98.00;;;;;;5012428;28;20452;-68
2024/02/22 03:57:34;;;;;;;4.80;2.23;;;11.10;98.00;;;;;;5012422;28;20452;-67
2024/02/22 04:00:02;;;;;;;2.80;1.90;;;11.10;98.00;;;;;;5012397;28;20462;-67
2024/02/22 04:02:30;;;;;;;2.20;1.80;;;11.00;98.00;;;;;;5011667;28;20459;-67
2024/02/22 04:04:57;;;;;;;2.10;1.73;;;10.90;98.00;;;;;;5012449;28;20489;-67
2024/02/22 04:07:24;;;;;;;3.83;2.30;;;10.80;98.00;;;;;;4994692;28;20942;-68
2024/02/22 04:09:53;;;;;;;3.47;2.10;;;10.80;98.00;;;;;;5012403;28;20963;-67
2024/02/22 04:12:22;;;;;;;3.50;1.90;;;10.70;98.00;;;;;;5011706;28;20487;-68
2024/02/22 04:14:49;;;;;;;3.23;2.10;;;10.70;98.00;;;;;;5012061;28;20495;-67
2024/02/22 04:17:16;;;;;;;2.27;1.77;;;10.70;98.00;;;;;;5012339;28;20455;-67
2024/02/22 04:19:43;;;;;;;2.87;1.90;;;10.70;98.00;;;;;;5011015;28;20458;-68
2024/02/22 04:22:10;;;;;;;2.70;1.83;;;10.60;98.00;;;;;;5012607;28;20840;-67
2024/02/22 04:24:37;;;;;;;2.57;1.87;;;10.60;98.00;;;;;;5012338;28;20449;-68
2024/02/22 04:27:06;;;;;;;2.90;1.90;;;10.60;98.00;;;;;;5012444;28;20470;-67
2024/02/22 04:29:33;;;;;;;4.43;2.30;;;10.60;98.00;;;;;;5012388;28;20953;-68
2024/02/22 04:32:00;;;;;;;2.47;1.60;;;10.70;98.00;;;;;;5011846;28;20514;-68
2024/02/22 04:34:27;;;;;;;2.00;1.80;;;10.70;98.00;;;;;;5011344;28;20491;-68
2024/02/22 04:36:55;;;;;;;4.10;1.67;;;10.60;98.00;;;;;;5011508;28;20444;-67
2024/02/22 04:39:22;;;;;;;3.37;2.00;;;10.70;98.00;;;;;;5011167;28;20460;-67
2024/02/22 04:41:49;;;;;;;2.47;1.80;;;10.70;98.00;;;;;;5011625;28;20490;-67
2024/02/22 04:44:17;;;;;;;4.30;1.70;;;10.60;98.00;;;;;;5011740;28;20872;-67
2024/02/22 04:46:44;;;;;;;3.20;1.73;;;10.50;98.00;;;;;;5011721;28;20466;-67
2024/02/22 04:49:11;;;;;;;2.90;1.70;;;10.50;98.00;;;;;;4993987;28;20449;-67
2024/02/22 04:51:41;;;;;;;1.77;1.70;;;10.50;98.00;;;;;;5011178;28;20487;-68
2024/02/22 04:54:09;;;;;;;1.70;1.50;;;10.50;98.00;;;;;;5011704;28;20518;-67
2024/02/22 04:56:36;;;;;;;1.83;1.60;;;10.40;98.00;;;;;;5011979;28;20557;-67
2024/02/22 04:59:03;;;;;;;2.90;1.63;;;10.40;98.00;;;;;;5011689;28;20454;-68
2024/02/22 05:01:31;;;;;;;2.00;1.60;;;10.40;98.00;;;;;;5011475;28;21024;-68
2024/02/22 05:03:59;;;;;;;1.90;1.50;;;10.40;98.00;;;;;;5011158;28;20455;-68
2024/02/22 05:06:26;;;;;;;1.70;1.60;;;10.30;98.00;;;;;;5010479;28;21006;-67
2024/02/22 05:08:52;;;;;;;2.33;1.60;;;10.40;98.00;;;;;;5011880;28;20487;-67
2024/02/22 05:11:20;;;;;;;1.90;1.43;;;10.40;98.00;;;;;;5011515;28;20583;-67
2024/02/22 05:13:49;;;;;;;2.10;1.70;;;10.40;98.00;;;;;;5011565;28;20458;-67
2024/02/22 05:16:16;;;;;;;2.70;1.77;;;10.40;98.00;;;;;;5011671;28;20506;-67
2024/02/22 05:18:44;;;;;;;1.97;1.50;;;10.50;98.00;;;;;;5011647;28;20447;-67
2024/02/22 05:21:11;;;;;;;2.17;1.60;;;10.50;98.00;;;;;;5011363;28;20456;-67
2024/02/22 05:23:39;;;;;;;3.80;1.50;;;10.40;98.00;;;;;;5011734;28;20466;-68
2024/02/22 05:26:07;;;;;;;1.43;1.43;;;10.40;98.00;;;;;;5015088;28;20450;-68
2024/02/22 05:28:34;;;;;;;1.93;1.53;;;10.40;98.00;;;;;;5015232;28;20517;-68
2024/02/22 05:31:01;;;;;;;1.43;1.40;;;10.40;98.00;;;;;;5014220;28;20467;-68
2024/02/22 05:33:29;;;;;;;2.83;1.60;;;10.40;98.00;;;;;;5015528;28;20491;-68
2024/02/22 05:35:57;;;;;;;2.00;1.60;;;10.40;98.00;;;;;;5015166;28;20449;-67
2024/02/22 05:38:24;;;;;;;2.10;1.60;;;10.40;98.00;;;;;;5014890;28;20460;-68
2024/02/22 05:40:51;;;;;;;2.83;1.90;;;10.40;98.00;;;;;;5013934;28;20482;-68
2024/02/22 05:43:18;;;;;;;5.70;1.77;;;10.30;98.00;;;;;;4997716;28;20847;-68
2024/02/22 05:45:46;;;;;;;1.93;1.60;;;10.30;98.00;;;;;;5015302;28;20467;-68
2024/02/22 05:48:14;;;;;;;2.00;1.60;;;10.30;98.00;;;;;;5014852;28;20459;-68
2024/02/22 05:50:42;;;;;;;2.40;1.80;;;10.30;98.00;;;;;;5014907;28;20497;-68
2024/02/22 05:53:11;;;;;;;3.23;1.50;;;10.30;98.00;;;;;;5014732;28;21190;-68
2024/02/22 05:55:38;;;;;;;1.70;1.60;;;10.20;98.00;;;;;;5014793;28;20465;-68
2024/02/22 05:58:05;;;;;;;2.07;1.60;;;10.20;98.00;;;;;;5014732;28;20466;-67
2024/02/22 06:00:32;;;;;;;2.90;1.57;;;10.20;98.00;;;;;;5014610;28;21033;-68
2024/02/22 06:02:59;;;;;;;2.50;1.80;;;10.30;98.00;;;;;;5014628;28;20543;-68
2024/02/22 06:05:27;;;;;;;2.23;1.60;;;10.30;98.00;;;;;;5014944;28;20503;-68
2024/02/22 06:07:55;;;;;;;2.53;1.60;;;10.30;98.00;;;;;;5014634;28;20832;-68
2024/02/22 06:10:23;;;;;;;3.40;1.60;;;10.30;98.00;;;;;;5014319;28;20993;-68
2024/02/22 06:12:50;;;;;;;2.03;1.57;;;10.40;98.00;;;;;;5014473;28;20484;-68
2024/02/22 06:15:17;;;;;;;3.50;1.80;;;10.40;98.00;;;;;;5014291;28;20454;-68
2024/02/22 06:17:46;;;;;;;2.53;1.53;;;10.40;98.00;;;;;;5015039;28;20487;-68
2024/02/22 06:20:13;;;;;;;2.10;1.60;;;10.40;98.00;;;;;;5013574;28;20461;-68
2024/02/22 06:22:43;;;;;;;2.67;2.17;;;10.30;98.00;;;;;;5014367;28;20458;-68
2024/02/22 06:25:12;;;;;;;12.63;2.70;;;10.30;98.00;;;;;;4997160;28;20452;-68
2024/02/22 06:27:43;;;;;;;1.87;1.60;;;10.30;98.00;;;;;;5013333;28;20546;-68
2024/02/22 06:30:11;;;;;;;3.50;1.80;;;10.30;98.00;;;;;;4996808;28;20549;-68
2024/02/22 06:32:38;;;;;;;1.70;1.43;;;10.30;98.00;;;;;;5014156;28;20522;-68
2024/02/22 06:35:08;;;;;;;3.20;1.50;;;10.40;98.00;;;;;;5014180;28;20455;-68
2024/02/22 06:37:35;;;;;;;1.67;1.47;;;10.30;98.00;;;;;;5013478;28;20798;-68
2024/02/22 06:40:02;;;;;;;2.40;1.80;;;10.30;98.00;;;;;;5014061;28;20459;-68
2024/02/22 06:42:32;;;;;;;3.10;1.60;;;10.40;98.00;;;;;;5014040;28;20551;-68
2024/02/22 06:45:03;;;;;;;1.97;1.47;;;10.40;98.00;;;;;;5013891;28;20922;-68
2024/02/22 06:47:30;;;;;;;1.60;1.40;;;10.30;98.00;;;;;;5012808;28;21091;-68
2024/02/22 06:49:57;;;;;;;3.07;1.93;;;10.30;98.00;;;;;;5013375;28;20451;-68
2024/02/22 06:52:24;;;;;;;3.00;2.10;;;10.30;98.00;;;;;;5013756;28;20483;-68
2024/02/22 06:54:51;;;;;;;1.73;1.40;;;10.30;98.00;;;;;;5013825;28;20946;-68
2024/02/22 06:57:18;;;;;;;3.83;1.47;;;10.30;98.00;;;;;;5012616;28;20451;-68
2024/02/22 06:59:45;;;;;;;2.70;1.50;;;10.30;98.00;;;;;;5013780;28;20953;-64
2024/02/22 07:02:15;;;;;;;1.87;1.50;;;10.30;98.00;;;;;;5013685;28;20478;-64
2024/02/22 07:04:43;;;;;;;2.00;1.50;;;10.30;98.00;;;;;;5013482;28;20464;-64
2024/02/22 07:07:10;;;;;;;3.10;1.57;;;10.40;98.00;;;;;;5000424;28;20904;-64
2024/02/22 07:09:38;;;;;;;1.97;1.33;;;10.40;98.00;;;;;;4993949;28;20536;-64
2024/02/22 07:12:05;;;;;;;3.07;1.63;;;10.40;98.00;;;;;;4994080;28;20487;-64
2024/02/22 07:14:32;;;;;;;2.50;1.30;;;10.30;98.00;;;;;;4993852;28;20934;-64
2024/02/22 07:17:00;;;;;;;1.80;1.60;;;10.40;98.00;;;;;;4993915;28;20472;-64
2024/02/22 07:19:28;;;;;;;1.67;1.50;;;10.40;98.00;;;;;;4992821;28;20520;-64
2024/02/22 07:21:55;;;;;;;3.07;2.17;;;10.30;98.00;;;;;;4993811;28;20461;-64
2024/02/22 07:24:23;;;;;;;2.07;1.43;;;10.40;98.00;;;;;;4993640;28;20456;-64
2024/02/22 07:26:50;;;;;;;1.50;1.50;;;10.40;98.00;;;;;;4992860;28;20463;-64
2024/02/22 07:29:17;;;;;;;1.77;1.47;;;10.40;98.00;;;;;;4992404;28;20461;-64
2024/02/22 07:31:44;;;;;;;2.43;1.67;;;10.40;98.00;;;;;;4993103;28;20957;-64
2024/02/22 07:34:11;;;;;;;3.47;1.60;;;10.40;98.00;;;;;;4993420;28;20500;-64
2024/02/22 07:36:40;;;;;;;1.40;1.40;;;10.40;98.00;;;;;;4992734;28;20798;-64
2024/02/22 07:39:07;;;;;;;2.43;1.67;;;10.40;98.00;;;;;;4993355;28;20459;-64
2024/02/22 07:41:34;;;;;;;1.60;1.47;;;10.40;98.00;;;;;;4993269;28;20448;-64
2024/02/22 07:44:01;;;;;;;2.20;1.70;;;10.30;98.00;;;;;;4993679;28;21120;-64
2024/02/22 07:46:30;;;;;;;1.67;1.30;;;10.30;98.00;;;;;;4993845;28;20958;-64
2024/02/22 07:48:57;;;;;;;2.20;1.70;;;10.30;98.00;;;;;;4993403;28;20464;-64
2024/02/22 07:51:24;;;;;;;1.80;1.40;;;10.40;98.00;;;;;;4992142;28;20463;-64
2024/02/22 07:53:53;;;;;;;3.70;1.47;;;10.40;98.00;;;;;;4993170;28;20488;-64
2024/02/22 07:56:20;;;;;;;2.27;1.50;;;10.30;98.00;;;;;;4991345;28;20811;-64
2024/02/22 07:58:49;;;;;;;2.27;1.50;;;10.30;98.00;;;;;;4993342;28;20856;-64
2024/02/22 08:01:16;;;;;;;1.60;1.40;;;10.30;98.00;;;;;;4993157;28;20914;-64
2024/02/22 08:03:44;;;;;;;2.20;1.67;;;10.30;98.00;;;;;;4993069;28;20461;-64
2024/02/22 08:06:13;;;;;;;2.17;1.50;;;10.40;98.00;;;;;;4993087;28;20468;-64
2024/02/22 08:08:41;;;;;;;3.13;2.03;;;10.40;98.00;;;;;;4993021;28;20540;-64
2024/02/22 08:11:10;;;;;;;2.07;1.67;;;10.50;98.00;;;;;;4992448;28;20819;-64
2024/02/22 08:13:37;;;;;;;1.83;1.70;;;10.50;98.00;;;;;;4991752;28;21022;-64
2024/02/22 08:16:06;;;;;;;1.93;1.30;;;10.40;98.00;;;;;;4991910;28;20457;-64
2024/02/22 08:18:34;;;;;;;2.27;1.63;;;10.40;98.00;;;;;;4992107;28;20547;-64
2024/02/22 08:21:01;;;;;;;1.60;1.43;;;10.40;98.00;;;;;;4974857;28;20462;-64
2024/02/22 08:23:29;;;;;;;1.47;1.33;;;10.50;98.00;;;;;;4992212;28;20534;-64
2024/02/22 08:25:57;;;;;;;8.73;1.70;;;10.50;98.00;;;;;;4992722;28;20456;-64
2024/02/22 08:28:26;;;;;;;2.00;1.60;;;10.50;98.00;;;;;;4992351;28;20454;-64
2024/02/22 08:30:53;;;;;;;6.87;2.07;;;10.60;98.00;;;;;;4992471;28;20976;-64
2024/02/22 08:33:25;;;;;;;1.50;1.37;;;10.50;98.00;;;;;;4992502;28;20857;-64
2024/02/22 08:35:54;;;;;;;1.97;1.40;;;10.50;98.00;;;;;;4992765;28;20456;-64
2024/02/22 08:38:21;;;;;;;3.73;1.40;;;10.50;98.00;;;;;;4992369;28;20469;-64
2024/02/22 08:40:49;;;;;;;1.40;1.30;;;10.50;98.00;;;;;;4992515;28;20465;-64
2024/02/22 08:43:16;;;;;;;1.30;1.13;;;10.60;98.00;;;;;;4992480;28;20472;-64
2024/02/22 08:45:46;;;;;;;1.70;1.37;;;10.50;98.00;;;;;;4991615;28;20456;-64
2024/02/22 08:48:14;;;;;;;1.60;1.30;;;10.60;98.00;;;;;;4991196;28;20491;-64
2024/02/22 08:50:42;;;;;;;2.40;1.30;;;10.60;98.00;;;;;;4992627;28;20450;-64
2024/02/22 08:53:13;;;;;;;3.90;1.57;;;10.70;98.00;;;;;;4990298;28;20589;-65
2024/02/22 08:55:40;;;;;;;1.47;1.20;;;10.70;98.00;;;;;;4992001;28;20459;-64
2024/02/22 08:58:07;;;;;;;1.97;1.20;;;10.60;98.00;;;;;;4992198;28;20467;-64
2024/02/22 09:00:34;;;;;;;1.40;1.30;;;10.70;98.00;;;;;;4994865;28;20977;-64
2024/02/22 09:03:03;;;;;;;1.57;1.20;;;10.70;98.00;;;;;;4996313;28;20958;-65
2024/02/22 09:05:30;;;;;;;1.50;1.40;;;10.80;98.00;;;;;;4996346;28;20632;-65
2024/02/22 09:07:58;;;;;;;1.30;1.20;;;10.80;98.00;;;;;;4996162;28;20441;-63
2024/02/22 09:10:25;;;;;;;1.53;1.27;;;10.70;98.00;;;;;;4996411;28;20475;-64
2024/02/22 09:12:53;;;;;;;1.40;1.20;;;10.80;98.00;;;;;;4996181;28;20495;-64
2024/02/22 09:15:20;;;;;;;1.40;1.20;;;10.80;98.00;;;;;;4996123;28;20453;-64
2024/02/22 09:17:48;;;;;;;2.50;1.30;;;10.90;98.00;;;;;;4996229;28;20547;-64
2024/02/22 09:20:18;;;;;;;1.30;1.20;;;10.90;98.00;;;;;;4995868;28;20539;-64
2024/02/22 09:22:45;;;;;;;1.37;1.20;;;10.90;98.00;;;;;;4996091;28;20518;-64
2024/02/22 09:25:12;;;;;;;1.80;1.13;;;11.00;98.00;;;;;;4996051;28;20520;-64
2024/02/22 09:27:40;;;;;;;1.37;1.27;;;11.00;98.00;;;;;;4996137;28;20456;-64
2024/02/22 09:30:08;;;;;;;1.53;1.17;;;11.10;98.00;;;;;;4996068;28;20449;-64
2024/02/22 09:32:35;;;;;;;1.60;1.40;;;11.10;98.00;;;;;;4995612;28;20489;-64
2024/02/22 09:35:02;;;;;;;1.20;1.10;;;11.10;98.00;;;;;;4995944;28;20456;-64
2024/02/22 09:37:31;;;;;;;1.40;1.20;;;11.20;98.00;;;;;;4995698;28;20454;-64
2024/02/22 09:39:58;;;;;;;1.53;1.20;;;11.20;98.00;;;;;;4995335;28;20450;-64
2024/02/22 09:42:26;;;;;;;1.53;1.20;;;11.20;98.00;;;;;;4995657;28;20456;-64
2024/02/22 09:44:55;;;;;;;1.20;1.10;;;11.20;98.00;;;;;;4995727;28;20454;-64
2024/02/22 09:47:23;;;;;;;1.50;1.30;;;11.10;98.00;;;;;;4995911;28;20511;-64
2024/02/22 09:49:50;;;;;;;1.40;1.10;;;11.20;98.00;;;;;;4995840;28;20488;-64
2024/02/22 09:52:19;;;;;;;1.30;1.17;;;11.20;98.00;;;;;;4994939;28;20452;-64
2024/02/22 09:54:51;;;;;;;1.50;1.40;;;11.20;98.00;;;;;;4995589;28;20495;-64
2024/02/22 09:57:18;;;;;;;1.40;1.20;;;11.30;98.00;;;;;;4995662;28;20448;-64
2024/02/22 09:59:49;;;;;;;1.40;1.30;;;11.30;98.00;;;;;;4995580;28;20450;-64
2024/02/22 10:02:17;;;;;;;1.83;1.40;;;11.30;98.00;;;;;;4995269;28;20509;-64
2024/02/22 10:04:53;;;;;;;1.30;1.23;;;11.30;98.00;;;;;;4995268;28;20513;-64
2024/02/22 10:07:24;;;;;;;1.30;1.20;;;11.30;98.00;;;;;;4995289;28;20458;-64
2024/02/22 10:09:54;;;;;;;1.83;1.20;;;11.30;98.00;;;;;;4994910;28;20450;-64
2024/02/22 10:12:25;;;;;;;2.90;1.37;;;11.40;98.00;;;;;;4993690;28;20956;-64
2024/02/22 10:14:52;;;;;;;1.30;1.10;;;11.40;98.00;;;;;;4995082;28;20987;-64
2024/02/22 10:17:23;;;;;;;1.30;1.10;;;11.40;98.00;;;;;;4995060;28;20939;-64
2024/02/22 10:19:58;;;;;;;1.70;1.20;;;11.40;98.00;;;;;;4977260;28;20462;-64
2024/02/22 10:22:25;;;;;;;1.40;1.10;;;11.50;98.00;;;;;;4994826;28;20462;-64
2024/02/22 10:24:55;;;;;;;1.20;1.10;;;11.50;98.00;;;;;;4994088;28;20465;-64
2024/02/22 10:27:24;;;;;;;1.30;1.10;;;11.60;98.00;;;;;;4993884;28;20458;-64
2024/02/22 10:29:52;;;;;;;1.87;1.23;;;11.70;98.00;;;;;;4993926;28;20870;-64
2024/02/22 10:32:20;;;;;;;1.30;1.10;;;11.80;98.00;;;;;;4994464;28;20463;-64
2024/02/22 10:34:51;;;;;;;1.70;1.20;;;11.80;98.00;;;;;;4994350;28;20482;-64
2024/02/22 10:37:18;;;;;;;2.60;1.40;;;11.80;98.00;;;;;;4994170;28;20532;-64
2024/02/22 10:39:46;;;;;;;1.40;1.20;;;11.80;98.00;;;;;;4993441;28;20889;-64
2024/02/22 10:42:15;;;;;;;1.77;1.20;;;11.70;98.00;;;;;;4994747;28;20451;-64
2024/02/22 10:44:44;;;;;;;2.60;1.40;;;11.80;98.00;;;;;;4994105;28;21174;-64
2024/02/22 10:47:12;;;;;;;2.33;1.20;;;11.80;98.00;;;;;;4994472;28;20443;-64
2024/02/22 10:49:39;;;;;;;1.87;1.27;;;11.70;98.00;;;;;;4994642;28;20530;-64
2024/02/22 10:52:07;;;;;;;1.20;1.00;;;11.60;98.00;;;;;;4994451;28;20459;-64
2024/02/22 10:54:35;;;;;;;1.20;1.20;;;11.60;98.00;;;;;;4994407;28;20497;-64
2024/02/22 10:57:03;;;;;;;1.40;1.10;;;11.60;98.00;;;;;;4994189;28;20458;-64
2024/02/22 10:59:34;;;;;;;2.43;1.30;;;11.60;98.00;;;;;;4993630;28;20954;-64
2024/02/22 11:02:03;;;;;;;1.57;1.10;;;11.60;98.00;;;;;;4994197;28;21031;-64
2024/02/22 11:04:32;;;;;;;1.50;1.30;;;11.60;98.00;;;;;;4992792;28;20957;-64
2024/02/22 11:07:05;;;;;;;1.40;1.10;;;11.70;98.00;;;;;;4994106;28;20961;-64
2024/02/22 11:09:40;;;;;;;1.23;1.10;;;11.70;98.00;;;;;;4994114;28;20486;-64
2024/02/22 11:12:08;;;;;;;1.30;1.20;;;11.70;98.00;;;;;;4993863;28;20560;-64
2024/02/22 11:14:40;;;;;;;1.30;1.10;;;11.70;98.00;;;;;;4993071;28;20520;-64
2024/02/22 11:17:17;;;;;;;1.20;1.00;;;11.70;98.00;;;;;;4993410;28;20485;-64
2024/02/22 11:19:48;;;;;;;1.87;1.13;;;11.60;98.00;;;;;;4991962;28;20521;-64
2024/02/22 11:22:16;;;;;;;1.20;1.10;;;11.60;98.00;;;;;;4993277;28;20451;-64
2024/02/22 11:24:44;;;;;;;1.20;1.10;;;11.60;98.00;;;;;;4993396;28;20462;-64
2024/02/22 11:27:11;;;;;;;1.20;1.00;;;11.60;98.00;;;;;;4993557;28;20465;-64
2024/02/22 11:29:39;;;;;;;1.20;1.10;;;11.70;98.00;;;;;;4993431;28;20453;-64
2024/02/22 11:32:06;;;;;;;1.30;1.10;;;11.70;98.00;;;;;;4993568;28;20558;-64
2024/02/22 11:34:35;;;;;;;1.20;1.10;;;11.70;98.00;;;;;;4993177;28;20649;-64
2024/02/22 11:37:16;;;;;;;1.13;1.00;;;11.70;98.00;;;;;;4993437;28;20989;-64
2024/02/22 11:39:44;;;;;;;1.10;1.10;;;11.60;98.00;;;;;;4976263;28;20556;-64
2024/02/22 11:42:16;;;;;;;1.63;1.10;;;11.70;98.00;;;;;;4993346;28;20453;-65
2024/02/22 11:44:44;;;;;;;1.20;1.00;;;11.70;98.00;;;;;;4993392;28;21000;-64
2024/02/22 11:47:13;;;;;;;1.20;1.10;;;11.70;98.00;;;;;;4993192;28;20494;-64
2024/02/22 11:49:41;;;;;;;1.97;1.30;;;11.60;98.00;;;;;;4993265;28;20558;-64
2024/02/22 11:52:29;;;;;;;3.20;1.83;;;11.60;98.00;;;;;;4993557;28;20460;-64
2024/02/22 11:54:57;;;;;;;1.20;1.10;;;11.60;98.00;;;;;;4976044;28;20536;-64
2024/02/22 11:57:24;;;;;;;1.30;1.10;;;11.60;98.00;;;;;;4993151;28;20469;-64
2024/02/22 11:59:53;;;;;;;1.20;1.00;;;11.70;98.00;;;;;;4991817;28;20471;-64
2024/02/22 12:02:22;;;;;;;1.70;1.20;;;11.70;98.00;;;;;;4992659;28;20453;-64
2024/02/22 12:04:50;;;;;;;1.47;1.20;;;11.60;98.00;;;;;;4993042;28;20462;-65
2024/02/22 12:07:17;;;;;;;1.30;1.10;;;11.60;98.00;;;;;;4992759;28;20455;-64
2024/02/22 12:09:44;;;;;;;1.40;1.20;;;11.60;98.00;;;;;;4992686;28;20521;-64
2024/02/22 12:12:12;;;;;;;1.40;1.10;;;11.70;98.00;;;;;;4992596;28;20537;-64
2024/02/22 12:14:39;;;;;;;1.33;1.10;;;11.80;98.00;;;;;;4992377;28;21082;-64
2024/02/22 12:17:10;;;;;;;1.40;1.10;;;11.80;98.00;;;;;;4992491;28;20476;-64
2024/02/22 12:19:38;;;;;;;3.13;1.20;;;11.90;98.00;;;;;;4992553;28;20451;-64
2024/02/22 12:22:05;;;;;;;1.20;1.10;;;12.00;98.00;;;;;;4991208;28;20495;-64
2024/02/22 12:24:34;;;;;;;1.40;1.30;;;12.20;98.00;;;;;;4992569;28;20459;-64
2024/02/22 12:27:02;;;;;;;1.20;1.10;;;12.20;98.00;;;;;;4992362;28;20452;-64
2024/02/22 12:29:30;;;;;;;1.20;1.07;;;12.30;98.00;;;;;;4992264;28;20949;-63
2024/02/22 12:32:06;;;;;;;3.30;1.20;;;12.40;98.00;;;;;;4992563;28;20451;-64
2024/02/22 12:34:36;;;;;;;1.40;1.20;;;12.30;98.00;;;;;;4991606;28;20581;-64
2024/02/22 12:37:03;;;;;;;1.30;1.10;;;12.30;98.00;;;;;;4992401;28;20467;-64
2024/02/22 12:39:30;;;;;;;1.20;1.10;;;12.40;98.00;;;;;;4992518;28;20530;-64
2024/02/22 12:41:57;;;;;;;2.13;1.40;;;12.40;98.00;;;;;;4992448;28;20456;-64
2024/02/22 12:44:25;;;;;;;1.50;1.10;;;12.40;98.00;;;;;;4992363;28;20998;-64
2024/02/22 12:46:52;;;;;;;1.30;1.10;;;12.40;98.00;;;;;;4990689;28;20455;-63
2024/02/22 12:49:21;;;;;;;1.20;1.10;;;12.40;98.00;;;;;;4991136;28;20869;-64
2024/02/22 12:51:50;;;;;;;1.40;1.10;;;12.40;98.00;;;;;;4992510;28;20942;-63